sensor_id;sensor_type;location;lat;lon;timestamp;temperature;humidity
25937;DHT22;13733;51.178;4.450;2024-02-26T00:01:43;8.10;92.10
25937;DHT22;13733;51.178;4.450;2024-02-26T00:04:11;8.20;91.20
25937;DHT22;13733;51.178;4.450;2024-02-26T00:06:38;8.30;90.40
25937;DHT22;13733;51.178;4.450;2024-02-26T00:09:07;8.20;90.80
25937;DHT22;13733;51.178;4.450;2024-02-26T00:11:33;8.30;90.00
25937;DHT22;13733;51.178;4.450;2024-02-26T00:13:59;8.30;90.00
25937;DHT22;13733;51.178;4.450;2024-02-26T00:16:25;8.20;90.50
25937;DHT22;13733;51.178;4.450;2024-02-26T00:18:51;8.30;90.60
25937;DHT22;13733;51.178;4.450;2024-02-26T00:21:16;8.20;92.00
25937;DHT22;13733;51.178;4.450;2024-02-26T00:23:42;8.10;93.50
25937;DHT22;13733;51.178;4.450;2024-02-26T00:26:08;8.10;94.10
25937;DHT22;13733;51.178;4.450;2024-02-26T00:28:34;8.10;95.10
25937;DHT22;13733;51.178;4.450;2024-02-26T00:31:00;8.10;95.40
25937;DHT22;13733;51.178;4.450;2024-02-26T00:33:26;8.10;95.30
25937;DHT22;13733;51.178;4.450;2024-02-26T00:35:51;8.10;95.80
25937;DHT22;13733;51.178;4.450;2024-02-26T00:38:17;8.10;96.50
25937;DHT22;13733;51.178;4.450;2024-02-26T00:40:43;8.10;97.10
25937;DHT22;13733;51.178;4.450;2024-02-26T00:43:09;8.10;97.30
25937;DHT22;13733;51.178;4.450;2024-02-26T00:45:35;8.10;97.10
25937;DHT22;13733;51.178;4.450;2024-02-26T00:48:03;8.00;97.40
25937;DHT22;13733;51.178;4.450;2024-02-26T00:50:31;8.00;98.20
25937;DHT22;13733;51.178;4.450;2024-02-26T00:52:57;7.90;99.00
25937;DHT22;13733;51.178;4.450;2024-02-26T00:55:23;7.90;99.60
25937;DHT22;13733;51.178;4.450;2024-02-26T00:57:49;7.80;99.90
25937;DHT22;13733;51.178;4.450;2024-02-26T01:00:15;7.80;99.90
25937;DHT22;13733;51.178;4.450;2024-02-26T01:02:42;7.80;99.90
25937;DHT22;13733;51.178;4.450;2024-02-26T01:05:08;7.70;99.90
25937;DHT22;13733;51.178;4.450;2024-02-26T01:07:37;7.70;99.90
25937;DHT22;13733;51.178;4.450;2024-02-26T01:10:03;7.60;99.90
25937;DHT22;13733;51.178;4.450;2024-02-26T01:12:29;7.70;99.90
25937;DHT22;13733;51.178;4.450;2024-02-26T01:14:55;7.70;99.90
25937;DHT22;13733;51.178;4.450;2024-02-26T01:17:21;7.70;99.90
25937;DHT22;13733;51.178;4.450;2024-02-26T01:19:46;7.70;99.90
25937;DHT22;13733;51.178;4.450;2024-02-26T01:22:12;7.70;99.90
25937;DHT22;13733;51.178;4.450;2024-02-26T01:24:38;7.70;99.90
25937;DHT22;13733;51.178;4.450;2024-02-26T01:27:04;7.70;99.90
25937;DHT22;13733;51.178;4.450;2024-02-26T01:29:30;7.70;99.90
25937;DHT22;13733;51.178;4.450;2024-02-26T01:31:56;7.70;99.90
25937;DHT22;13733;51.178;4.450;2024-02-26T01:34:22;7.60;99.90
25937;DHT22;13733;51.178;4.450;2024-02-26T01:36:47;7.50;99.90
25937;DHT22;13733;51.178;4.450;2024-02-26T01:39:13;7.50;99.90
25937;DHT22;13733;51.178;4.450;2024-02-26T01:41:40;7.50;99.90
25937;DHT22;13733;51.178;4.450;2024-02-26T01:44:06;7.50;99.90
25937;DHT22;13733;51.178;4.450;2024-02-26T01:46:34;7.50;99.90
25937;DHT22;13733;51.178;4.450;2024-02-26T01:49:02;7.50;99.90
25937;DHT22;13733;51.178;4.450;2024-02-26T01:51:29;7.50;99.90
25937;DHT22;13733;51.178;4.450;2024-02-26T01:53:55;7.50;99.90
25937;DHT22;13733;51.178;4.450;2024-02-26T01:56:21;7.50;99.90
25937;DHT22;13733;51.178;4.450;2024-02-26T01:58:48;7.50;99.90
25937;DHT22;13733;51.178;4.450;2024-02-26T02:01:16;7.50;99.90
25937;DHT22;13733;51.178;4.450;2024-02-26T02:03:44;7.50;99.90
25937;DHT22;13733;51.178;4.450;2024-02-26T02:06:11;7.40;99.90
25937;DHT22;13733;51.178;4.450;2024-02-26T02:08:38;7.40;99.90
25937;DHT22;13733;51.178;4.450;2024-02-26T02:11:04;7.30;99.90
25937;DHT22;13733;51.178;4.450;2024-02-26T02:13:31;7.30;99.90
25937;DHT22;13733;51.178;4.450;2024-02-26T02:15:57;7.40;99.90
25937;DHT22;13733;51.178;4.450;2024-02-26T02:18:24;7.40;99.90
25937;DHT22;13733;51.178;4.450;2024-02-26T02:20:49;7.30;99.90
25937;DHT22;13733;51.178;4.450;2024-02-26T02:23:15;7.40;99.90
25937;DHT22;13733;51.178;4.450;2024-02-26T02:25:41;7.30;99.90
25937;DHT22;13733;51.178;4.450;2024-02-26T02:28:07;7.40;99.90
25937;DHT22;13733;51.178;4.450;2024-02-26T02:30:33;7.40;99.90
25937;DHT22;13733;51.178;4.450;2024-02-26T02:33:01;7.40;99.90
25937;DHT22;13733;51.178;4.450;2024-02-26T02:35:26;7.30;99.90
25937;DHT22;13733;51.178;4.450;2024-02-26T02:37:54;7.40;99.90
25937;DHT22;13733;51.178;4.450;2024-02-26T02:40:22;7.40;99.90
25937;DHT22;13733;51.178;4.450;2024-02-26T02:42:47;7.30;99.90
25937;DHT22;13733;51.178;4.450;2024-02-26T02:45:13;7.30;99.90
25937;DHT22;13733;51.178;4.450;2024-02-26T02:47:40;7.30;99.90
25937;DHT22;13733;51.178;4.450;2024-02-26T02:50:06;7.30;99.90
25937;DHT22;13733;51.178;4.450;2024-02-26T02:52:32;7.40;99.90
25937;DHT22;13733;51.178;4.450;2024-02-26T02:54:58;7.40;99.90
25937;DHT22;13733;51.178;4.450;2024-02-26T02:57:24;7.30;99.90
25937;DHT22;13733;51.178;4.450;2024-02-26T02:59:50;7.30;99.90
25937;DHT22;13733;51.178;4.450;2024-02-26T03:02:16;7.30;99.90
25937;DHT22;13733;51.178;4.450;2024-02-26T03:04:41;7.20;99.90
25937;DHT22;13733;51.178;4.450;2024-02-26T03:07:07;7.20;99.90
25937;DHT22;13733;51.178;4.450;2024-02-26T03:09:33;7.20;99.90
25937;DHT22;13733;51.178;4.450;2024-02-26T03:11:59;7.20;99.90
25937;DHT22;13733;51.178;4.450;2024-02-26T03:14:24;7.20;99.90
25937;DHT22;13733;51.178;4.450;2024-02-26T03:16:54;7.20;99.90
25937;DHT22;13733;51.178;4.450;2024-02-26T03:19:20;7.20;99.90
25937;DHT22;13733;51.178;4.450;2024-02-26T03:21:46;7.20;99.90
25937;DHT22;13733;51.178;4.450;2024-02-26T03:24:12;7.20;99.90
25937;DHT22;13733;51.178;4.450;2024-02-26T03:26:38;7.20;99.90
25937;DHT22;13733;51.178;4.450;2024-02-26T03:29:04;7.10;99.90
25937;DHT22;13733;51.178;4.450;2024-02-26T03:31:30;7.10;99.90
25937;DHT22;13733;51.178;4.450;2024-02-26T03:33:56;7.10;99.90
25937;DHT22;13733;51.178;4.450;2024-02-26T03:36:22;7.10;99.90
25937;DHT22;13733;51.178;4.450;2024-02-26T03:38:48;7.10;99.90
25937;DHT22;13733;51.178;4.450;2024-02-26T03:41:14;7.00;99.90
25937;DHT22;13733;51.178;4.450;2024-02-26T03:43:40;7.00;99.90
25937;DHT22;13733;51.178;4.450;2024-02-26T03:46:09;7.10;99.90
25937;DHT22;13733;51.178;4.450;2024-02-26T03:48:36;7.00;99.90
25937;DHT22;13733;51.178;4.450;2024-02-26T03:51:03;7.00;99.90
25937;DHT22;13733;51.178;4.450;2024-02-26T03:53:29;7.00;99.90
25937;DHT22;13733;51.178;4.450;2024-02-26T03:55:55;7.00;99.90
25937;DHT22;13733;51.178;4.450;2024-02-26T03:58:21;7.00;99.90
25937;DHT22;13733;51.178;4.450;2024-02-26T04:00:47;7.00;99.90
25937;DHT22;13733;51.178;4.450;2024-02-26T04:03:13;7.00;99.90
25937;DHT22;13733;51.178;4.450;2024-02-26T04:05:39;7.00;99.90
25937;DHT22;13733;51.178;4.450;2024-02-26T04:08:05;7.10;99.90
25937;DHT22;13733;51.178;4.450;2024-02-26T04:10:36;7.10;99.90
25937;DHT22;13733;51.178;4.450;2024-02-26T04:13:05;7.10;99.90
25937;DHT22;13733;51.178;4.450;2024-02-26T04:15:32;7.20;99.90
25937;DHT22;13733;51.178;4.450;2024-02-26T04:17:58;7.20;99.90
25937;DHT22;13733;51.178;4.450;2024-02-26T04:20:23;7.20;99.90
25937;DHT22;13733;51.178;4.450;2024-02-26T04:22:49;7.10;99.90
25937;DHT22;13733;51.178;4.450;2024-02-26T04:25:16;7.10;99.90
25937;DHT22;13733;51.178;4.450;2024-02-26T04:27:41;7.10;99.90
25937;DHT22;13733;51.178;4.450;2024-02-26T04:30:08;7.00;99.90
25937;DHT22;13733;51.178;4.450;2024-02-26T04:32:34;7.10;99.90
25937;DHT22;13733;51.178;4.450;2024-02-26T04:35:01;7.10;99.90
25937;DHT22;13733;51.178;4.450;2024-02-26T04:37:27;7.00;99.90
25937;DHT22;13733;51.178;4.450;2024-02-26T04:40:02;7.00;99.90
25937;DHT22;13733;51.178;4.450;2024-02-26T04:42:28;7.00;99.90
25937;DHT22;13733;51.178;4.450;2024-02-26T04:44:55;7.00;99.90
25937;DHT22;13733;51.178;4.450;2024-02-26T04:47:20;6.90;99.90
25937;DHT22;13733;51.178;4.450;2024-02-26T04:49:50;7.00;99.90
25937;DHT22;13733;51.178;4.450;2024-02-26T04:52:16;7.00;99.90
25937;DHT22;13733;51.178;4.450;2024-02-26T04:54:42;7.00;99.90
25937;DHT22;13733;51.178;4.450;2024-02-26T04:57:08;7.00;99.90
25937;DHT22;13733;51.178;4.450;2024-02-26T04:59:33;7.00;99.90
25937;DHT22;13733;51.178;4.450;2024-02-26T05:01:59;6.90;99.90
25937;DHT22;13733;51.178;4.450;2024-02-26T05:04:25;7.00;99.90
25937;DHT22;13733;51.178;4.450;2024-02-26T05:06:50;7.00;99.90
25937;DHT22;13733;51.178;4.450;2024-02-26T05:09:16;7.00;99.90
25937;DHT22;13733;51.178;4.450;2024-02-26T05:11:42;7.00;99.90
25937;DHT22;13733;51.178;4.450;2024-02-26T05:14:08;7.00;99.90
25937;DHT22;13733;51.178;4.450;2024-02-26T05:16:33;7.00;99.90
25937;DHT22;13733;51.178;4.450;2024-02-26T05:18:59;7.00;99.90
25937;DHT22;13733;51.178;4.450;2024-02-26T05:21:26;7.00;99.90
25937;DHT22;13733;51.178;4.450;2024-02-26T05:23:52;7.10;99.90
25937;DHT22;13733;51.178;4.450;2024-02-26T05:26:21;7.00;99.90
25937;DHT22;13733;51.178;4.450;2024-02-26T05:28:48;7.10;99.90
25937;DHT22;13733;51.178;4.450;2024-02-26T05:31:15;7.10;99.90
25937;DHT22;13733;51.178;4.450;2024-02-26T05:33:41;7.00;99.90
25937;DHT22;13733;51.178;4.450;2024-02-26T05:36:07;6.90;99.90
25937;DHT22;13733;51.178;4.450;2024-02-26T05:38:33;6.90;99.90
25937;DHT22;13733;51.178;4.450;2024-02-26T05:40:59;7.00;99.90
25937;DHT22;13733;51.178;4.450;2024-02-26T05:43:26;6.90;99.90
25937;DHT22;13733;51.178;4.450;2024-02-26T05:45:51;6.90;99.90
25937;DHT22;13733;51.178;4.450;2024-02-26T05:48:18;6.90;99.90
25937;DHT22;13733;51.178;4.450;2024-02-26T05:50:47;6.90;99.90
25937;DHT22;13733;51.178;4.450;2024-02-26T05:53:13;6.90;99.90
25937;DHT22;13733;51.178;4.450;2024-02-26T05:55:39;6.90;99.90
25937;DHT22;13733;51.178;4.450;2024-02-26T05:58:05;6.90;99.90
25937;DHT22;13733;51.178;4.450;2024-02-26T06:00:30;6.90;99.90
25937;DHT22;13733;51.178;4.450;2024-02-26T06:02:56;6.90;99.90
25937;DHT22;13733;51.178;4.450;2024-02-26T06:05:22;6.90;99.90
25937;DHT22;13733;51.178;4.450;2024-02-26T06:07:48;6.90;99.90
25937;DHT22;13733;51.178;4.450;2024-02-26T06:10:13;6.90;99.90
25937;DHT22;13733;51.178;4.450;2024-02-26T06:12:39;6.90;99.90
25937;DHT22;13733;51.178;4.450;2024-02-26T06:15:06;6.90;99.90
25937;DHT22;13733;51.178;4.450;2024-02-26T06:17:32;6.90;99.90
25937;DHT22;13733;51.178;4.450;2024-02-26T06:19:59;6.90;99.90
25937;DHT22;13733;51.178;4.450;2024-02-26T06:22:25;6.80;99.90
25937;DHT22;13733;51.178;4.450;2024-02-26T06:24:51;6.80;99.90
25937;DHT22;13733;51.178;4.450;2024-02-26T06:27:17;6.80;99.90
25937;DHT22;13733;51.178;4.450;2024-02-26T06:29:42;6.80;99.90
25937;DHT22;13733;51.178;4.450;2024-02-26T06:32:08;6.70;99.90
25937;DHT22;13733;51.178;4.450;2024-02-26T06:34:34;6.70;99.90
25937;DHT22;13733;51.178;4.450;2024-02-26T06:37:00;6.70;99.90
25937;DHT22;13733;51.178;4.450;2024-02-26T06:39:25;6.70;99.90
25937;DHT22;13733;51.178;4.450;2024-02-26T06:41:52;6.70;99.90
25937;DHT22;13733;51.178;4.450;2024-02-26T06:44:23;6.60;99.90
25937;DHT22;13733;51.178;4.450;2024-02-26T06:46:50;6.70;99.90
25937;DHT22;13733;51.178;4.450;2024-02-26T06:49:15;6.70;99.90
25937;DHT22;13733;51.178;4.450;2024-02-26T06:51:41;6.70;99.90
25937;DHT22;13733;51.178;4.450;2024-02-26T06:54:07;6.70;99.90
25937;DHT22;13733;51.178;4.450;2024-02-26T06:56:33;6.70;99.90
25937;DHT22;13733;51.178;4.450;2024-02-26T06:58:58;6.70;99.90
25937;DHT22;13733;51.178;4.450;2024-02-26T07:01:24;6.70;99.90
25937;DHT22;13733;51.178;4.450;2024-02-26T07:03:50;6.70;99.90
25937;DHT22;13733;51.178;4.450;2024-02-26T07:06:17;6.70;99.90
25937;DHT22;13733;51.178;4.450;2024-02-26T07:08:42;6.60;99.90
25937;DHT22;13733;51.178;4.450;2024-02-26T07:11:08;6.70;99.90
25937;DHT22;13733;51.178;4.450;2024-02-26T07:13:34;6.70;99.90
25937;DHT22;13733;51.178;4.450;2024-02-26T07:16:00;6.70;99.90
25937;DHT22;13733;51.178;4.450;2024-02-26T07:18:26;6.60;99.90
25937;DHT22;13733;51.178;4.450;2024-02-26T07:20:52;6.60;99.90
25937;DHT22;13733;51.178;4.450;2024-02-26T07:23:19;6.60;99.90
25937;DHT22;13733;51.178;4.450;2024-02-26T07:25:44;6.70;99.90
25937;DHT22;13733;51.178;4.450;2024-02-26T07:28:12;6.70;99.90
25937;DHT22;13733;51.178;4.450;2024-02-26T07:30:37;6.70;99.90
25937;DHT22;13733;51.178;4.450;2024-02-26T07:33:03;6.70;99.90
25937;DHT22;13733;51.178;4.450;2024-02-26T07:35:29;6.70;99.90
25937;DHT22;13733;51.178;4.450;2024-02-26T07:37:54;6.80;99.90
25937;DHT22;13733;51.178;4.450;2024-02-26T07:40:20;6.70;99.90
25937;DHT22;13733;51.178;4.450;2024-02-26T07:42:46;6.70;99.90
25937;DHT22;13733;51.178;4.450;2024-02-26T07:45:12;6.80;99.90
25937;DHT22;13733;51.178;4.450;2024-02-26T07:47:39;6.80;99.90
25937;DHT22;13733;51.178;4.450;2024-02-26T07:50:08;6.80;99.90
25937;DHT22;13733;51.178;4.450;2024-02-26T07:52:34;6.80;99.90
25937;DHT22;13733;51.178;4.450;2024-02-26T07:55:00;6.80;99.90
25937;DHT22;13733;51.178;4.450;2024-02-26T07:57:25;6.70;99.90
25937;DHT22;13733;51.178;4.450;2024-02-26T07:59:51;6.80;99.90
25937;DHT22;13733;51.178;4.450;2024-02-26T08:02:17;6.80;99.90
25937;DHT22;13733;51.178;4.450;2024-02-26T08:04:44;6.80;99.90
25937;DHT22;13733;51.178;4.450;2024-02-26T08:07:09;6.80;99.90
25937;DHT22;13733;51.178;4.450;2024-02-26T08:09:35;6.90;99.90
25937;DHT22;13733;51.178;4.450;2024-02-26T08:12:01;6.90;99.90
25937;DHT22;13733;51.178;4.450;2024-02-26T08:14:27;6.90;99.90
25937;DHT22;13733;51.178;4.450;2024-02-26T08:16:52;6.90;99.90
25937;DHT22;13733;51.178;4.450;2024-02-26T08:19:18;6.90;99.90
25937;DHT22;13733;51.178;4.450;2024-02-26T08:21:44;6.90;99.90
25937;DHT22;13733;51.178;4.450;2024-02-26T08:24:10;6.90;99.90
25937;DHT22;13733;51.178;4.450;2024-02-26T08:26:38;7.00;99.90
25937;DHT22;13733;51.178;4.450;2024-02-26T08:29:04;6.90;99.90
25937;DHT22;13733;51.178;4.450;2024-02-26T08:31:30;6.90;99.90
25937;DHT22;13733;51.178;4.450;2024-02-26T08:33:56;7.00;99.90
25937;DHT22;13733;51.178;4.450;2024-02-26T08:36:22;7.00;99.90
25937;DHT22;13733;51.178;4.450;2024-02-26T08:38:47;7.00;99.90
25937;DHT22;13733;51.178;4.450;2024-02-26T08:41:13;7.00;99.90
25937;DHT22;13733;51.178;4.450;2024-02-26T08:43:39;7.00;99.90
25937;DHT22;13733;51.178;4.450;2024-02-26T08:46:09;6.90;99.90
25937;DHT22;13733;51.178;4.450;2024-02-26T08:48:35;7.00;99.90
25937;DHT22;13733;51.178;4.450;2024-02-26T08:51:05;7.00;99.90
25937;DHT22;13733;51.178;4.450;2024-02-26T08:53:32;7.00;99.90
25937;DHT22;13733;51.178;4.450;2024-02-26T08:55:58;7.00;99.90
25937;DHT22;13733;51.178;4.450;2024-02-26T08:58:24;7.00;99.90
25937;DHT22;13733;51.178;4.450;2024-02-26T09:00:49;6.90;99.90
25937;DHT22;13733;51.178;4.450;2024-02-26T09:03:15;6.90;99.90
25937;DHT22;13733;51.178;4.450;2024-02-26T09:05:41;6.90;99.90
25937;DHT22;13733;51.178;4.450;2024-02-26T09:08:07;7.00;99.90
25937;DHT22;13733;51.178;4.450;2024-02-26T09:10:32;7.00;99.90
25937;DHT22;13733;51.178;4.450;2024-02-26T09:12:58;7.00;99.90
25937;DHT22;13733;51.178;4.450;2024-02-26T09:15:24;7.00;99.90
25937;DHT22;13733;51.178;4.450;2024-02-26T09:17:50;7.00;99.90
25937;DHT22;13733;51.178;4.450;2024-02-26T09:20:17;7.00;99.90
25937;DHT22;13733;51.178;4.450;2024-02-26T09:22:46;7.00;99.90
25937;DHT22;13733;51.178;4.450;2024-02-26T09:25:13;7.10;99.90
25937;DHT22;13733;51.178;4.450;2024-02-26T09:27:39;7.10;99.90
25937;DHT22;13733;51.178;4.450;2024-02-26T09:30:05;7.10;99.90
25937;DHT22;13733;51.178;4.450;2024-02-26T09:32:30;7.10;99.90
25937;DHT22;13733;51.178;4.450;2024-02-26T09:34:56;7.10;99.90
25937;DHT22;13733;51.178;4.450;2024-02-26T09:37:22;7.00;99.90
25937;DHT22;13733;51.178;4.450;2024-02-26T09:39:48;7.00;99.90
25937;DHT22;13733;51.178;4.450;2024-02-26T09:42:14;7.10;99.90
25937;DHT22;13733;51.178;4.450;2024-02-26T09:44:40;7.00;99.90
25937;DHT22;13733;51.178;4.450;2024-02-26T09:47:11;7.00;99.90
25937;DHT22;13733;51.178;4.450;2024-02-26T09:49:37;7.00;99.90
25937;DHT22;13733;51.178;4.450;2024-02-26T09:52:05;7.00;99.90
25937;DHT22;13733;51.178;4.450;2024-02-26T09:54:32;7.00;99.90
25937;DHT22;13733;51.178;4.450;2024-02-26T09:57:00;7.00;99.90
25937;DHT22;13733;51.178;4.450;2024-02-26T09:59:29;6.90;99.90
25937;DHT22;13733;51.178;4.450;2024-02-26T10:02:01;6.90;99.90
25937;DHT22;13733;51.178;4.450;2024-02-26T10:04:28;6.90;99.90
25937;DHT22;13733;51.178;4.450;2024-02-26T10:06:54;6.90;99.90
25937;DHT22;13733;51.178;4.450;2024-02-26T10:09:20;6.90;99.90
25937;DHT22;13733;51.178;4.450;2024-02-26T10:11:47;6.90;99.90
25937;DHT22;13733;51.178;4.450;2024-02-26T10:14:14;6.90;99.90
25937;DHT22;13733;51.178;4.450;2024-02-26T10:16:41;6.90;99.90
25937;DHT22;13733;51.178;4.450;2024-02-26T10:19:07;6.90;99.90
25937;DHT22;13733;51.178;4.450;2024-02-26T10:21:33;6.90;99.90
25937;DHT22;13733;51.178;4.450;2024-02-26T10:23:59;6.90;99.90
25937;DHT22;13733;51.178;4.450;2024-02-26T10:26:24;6.90;99.90
25937;DHT22;13733;51.178;4.450;2024-02-26T10:28:50;6.90;99.90
25937;DHT22;13733;51.178;4.450;2024-02-26T10:31:16;6.90;99.90
25937;DHT22;13733;51.178;4.450;2024-02-26T10:33:43;7.00;99.90
25937;DHT22;13733;51.178;4.450;2024-02-26T10:36:10;7.00;99.90
25937;DHT22;13733;51.178;4.450;2024-02-26T10:38:37;7.00;99.90
25937;DHT22;13733;51.178;4.450;2024-02-26T10:41:04;7.00;99.90
25937;DHT22;13733;51.178;4.450;2024-02-26T10:43:31;6.90;99.90
25937;DHT22;13733;51.178;4.450;2024-02-26T10:45:57;6.90;99.90
25937;DHT22;13733;51.178;4.450;2024-02-26T10:48:23;7.00;99.90
25937;DHT22;13733;51.178;4.450;2024-02-26T10:50:49;7.00;99.90
25937;DHT22;13733;51.178;4.450;2024-02-26T10:53:22;7.00;99.90
25937;DHT22;13733;51.178;4.450;2024-02-26T10:55:59;7.10;99.90
25937;DHT22;13733;51.178;4.450;2024-02-26T10:58:27;7.00;99.90
25937;DHT22;13733;51.178;4.450;2024-02-26T11:00:56;7.00;99.90
25937;DHT22;13733;51.178;4.450;2024-02-26T11:03:23;7.10;99.90
25937;DHT22;13733;51.178;4.450;2024-02-26T11:05:51;7.10;99.90
25937;DHT22;13733;51.178;4.450;2024-02-26T11:08:21;7.00;99.90
25937;DHT22;13733;51.178;4.450;2024-02-26T11:10:48;7.00;99.90
25937;DHT22;13733;51.178;4.450;2024-02-26T11:13:15;7.10;99.90
25937;DHT22;13733;51.178;4.450;2024-02-26T11:15:43;7.20;99.90
25937;DHT22;13733;51.178;4.450;2024-02-26T11:18:10;7.20;99.90
25937;DHT22;13733;51.178;4.450;2024-02-26T11:20:38;7.20;99.90
25937;DHT22;13733;51.178;4.450;2024-02-26T11:23:07;7.20;99.90
25937;DHT22;13733;51.178;4.450;2024-02-26T11:25:35;7.20;99.90
25937;DHT22;13733;51.178;4.450;2024-02-26T11:28:04;7.20;99.90
25937;DHT22;13733;51.178;4.450;2024-02-26T11:30:33;7.10;99.90
25937;DHT22;13733;51.178;4.450;2024-02-26T11:33:00;7.10;99.90
25937;DHT22;13733;51.178;4.450;2024-02-26T11:35:27;7.10;99.90
25937;DHT22;13733;51.178;4.450;2024-02-26T11:37:55;7.10;99.90
25937;DHT22;13733;51.178;4.450;2024-02-26T11:40:25;7.10;99.90
25937;DHT22;13733;51.178;4.450;2024-02-26T11:42:51;7.10;99.90
25937;DHT22;13733;51.178;4.450;2024-02-26T11:48:14;7.10;99.90
25937;DHT22;13733;51.178;4.450;2024-02-26T11:50:42;7.10;99.90
25937;DHT22;13733;51.178;4.450;2024-02-26T11:58:39;7.00;99.90
25937;DHT22;13733;51.178;4.450;2024-02-26T12:01:06;7.00;99.90
25937;DHT22;13733;51.178;4.450;2024-02-26T12:03:54;6.90;99.90
25937;DHT22;13733;51.178;4.450;2024-02-26T12:06:20;7.00;99.90
25937;DHT22;13733;51.178;4.450;2024-02-26T12:08:46;7.00;99.90
25937;DHT22;13733;51.178;4.450;2024-02-26T12:11:15;7.00;99.90
25937;DHT22;13733;51.178;4.450;2024-02-26T12:13:41;7.00;99.90
25937;DHT22;13733;51.178;4.450;2024-02-26T12:16:07;6.90;99.90
25937;DHT22;13733;51.178;4.450;2024-02-26T12:18:34;6.90;99.90
25937;DHT22;13733;51.178;4.450;2024-02-26T12:21:03;6.80;99.90
25937;DHT22;13733;51.178;4.450;2024-02-26T12:23:29;6.90;99.90
25937;DHT22;13733;51.178;4.450;2024-02-26T12:26:02;7.00;99.90
25937;DHT22;13733;51.178;4.450;2024-02-26T12:28:31;7.00;99.90
25937;DHT22;13733;51.178;4.450;2024-02-26T12:30:57;6.90;99.90
25937;DHT22;13733;51.178;4.450;2024-02-26T12:33:26;6.90;99.90
25937;DHT22;13733;51.178;4.450;2024-02-26T12:35:53;6.90;99.90
25937;DHT22;13733;51.178;4.450;2024-02-26T12:38:18;7.00;99.90
25937;DHT22;13733;51.178;4.450;2024-02-26T12:40:45;7.10;99.90
25937;DHT22;13733;51.178;4.450;2024-02-26T12:43:12;7.00;99.90
25937;DHT22;13733;51.178;4.450;2024-02-26T12:45:43;7.00;99.90
25937;DHT22;13733;51.178;4.450;2024-02-26T12:48:13;7.00;99.90
25937;DHT22;13733;51.178;4.450;2024-02-26T12:50:39;7.00;99.90
25937;DHT22;13733;51.178;4.450;2024-02-26T12:53:05;7.00;99.90
25937;DHT22;13733;51.178;4.450;2024-02-26T12:55:33;7.00;99.90
25937;DHT22;13733;51.178;4.450;2024-02-26T12:58:00;7.00;99.90
25937;DHT22;13733;51.178;4.450;2024-02-26T13:00:27;6.90;99.90
25937;DHT22;13733;51.178;4.450;2024-02-26T13:02:54;7.00;99.90
25937;DHT22;13733;51.178;4.450;2024-02-26T13:05:21;7.00;99.90
25937;DHT22;13733;51.178;4.450;2024-02-26T13:07:48;7.00;99.90
25937;DHT22;13733;51.178;4.450;2024-02-26T13:10:14;7.00;99.90
25937;DHT22;13733;51.178;4.450;2024-02-26T13:12:47;7.00;99.90
25937;DHT22;13733;51.178;4.450;2024-02-26T13:15:20;7.00;99.90
25937;DHT22;13733;51.178;4.450;2024-02-26T13:17:47;7.10;99.90
25937;DHT22;13733;51.178;4.450;2024-02-26T13:20:13;7.10;99.90
25937;DHT22;13733;51.178;4.450;2024-02-26T13:22:49;7.00;99.90
25937;DHT22;13733;51.178;4.450;2024-02-26T13:25:20;7.00;99.90
25937;DHT22;13733;51.178;4.450;2024-02-26T13:27:46;7.00;99.90
25937;DHT22;13733;51.178;4.450;2024-02-26T13:30:12;7.00;99.90
25937;DHT22;13733;51.178;4.450;2024-02-26T13:32:40;7.00;99.90
25937;DHT22;13733;51.178;4.450;2024-02-26T13:37:37;6.90;99.90
25937;DHT22;13733;51.178;4.450;2024-02-26T13:40:09;6.90;99.90
25937;DHT22;13733;51.178;4.450;2024-02-26T13:42:38;6.90;99.90
25937;DHT22;13733;51.178;4.450;2024-02-26T13:45:05;6.90;99.90
25937;DHT22;13733;51.178;4.450;2024-02-26T13:47:34;6.90;99.90
25937;DHT22;13733;51.178;4.450;2024-02-26T13:50:01;6.90;99.90
25937;DHT22;13733;51.178;4.450;2024-02-26T13:52:29;6.90;99.90
25937;DHT22;13733;51.178;4.450;2024-02-26T13:54:57;6.90;99.90
25937;DHT22;13733;51.178;4.450;2024-02-26T13:57:23;6.90;99.90
25937;DHT22;13733;51.178;4.450;2024-02-26T13:59:49;6.90;99.90
25937;DHT22;13733;51.178;4.450;2024-02-26T14:02:16;6.90;99.90
25937;DHT22;13733;51.178;4.450;2024-02-26T14:04:42;6.90;99.90
25937;DHT22;13733;51.178;4.450;2024-02-26T14:07:08;6.90;99.90
25937;DHT22;13733;51.178;4.450;2024-02-26T14:09:36;6.90;99.90
25937;DHT22;13733;51.178;4.450;2024-02-26T14:12:02;6.90;99.90
25937;DHT22;13733;51.178;4.450;2024-02-26T14:14:28;6.90;99.90
25937;DHT22;13733;51.178;4.450;2024-02-26T14:16:54;6.90;99.90
25937;DHT22;13733;51.178;4.450;2024-02-26T14:19:20;6.90;99.90
25937;DHT22;13733;51.178;4.450;2024-02-26T14:21:45;6.90;99.90
25937;DHT22;13733;51.178;4.450;2024-02-26T14:24:11;6.90;99.90
25937;DHT22;13733;51.178;4.450;2024-02-26T14:26:37;6.90;99.90
25937;DHT22;13733;51.178;4.450;2024-02-26T14:29:03;6.90;99.90
25937;DHT22;13733;51.178;4.450;2024-02-26T14:31:29;6.90;99.90
25937;DHT22;13733;51.178;4.450;2024-02-26T14:33:54;6.90;99.90
25937;DHT22;13733;51.178;4.450;2024-02-26T14:36:21;7.00;99.90
25937;DHT22;13733;51.178;4.450;2024-02-26T14:38:47;7.00;99.90
25937;DHT22;13733;51.178;4.450;2024-02-26T14:41:14;7.00;99.90
25937;DHT22;13733;51.178;4.450;2024-02-26T14:43:39;7.00;99.90
25937;DHT22;13733;51.178;4.450;2024-02-26T14:46:05;6.90;99.90
25937;DHT22;13733;51.178;4.450;2024-02-26T14:48:31;7.00;99.90
25937;DHT22;13733;51.178;4.450;2024-02-26T14:50:57;6.90;99.90
25937;DHT22;13733;51.178;4.450;2024-02-26T14:53:24;6.90;99.90
25937;DHT22;13733;51.178;4.450;2024-02-26T14:55:50;7.00;99.90
25937;DHT22;13733;51.178;4.450;2024-02-26T14:58:16;7.00;99.90
25937;DHT22;13733;51.178;4.450;2024-02-26T15:00:42;7.00;99.90
25937;DHT22;13733;51.178;4.450;2024-02-26T15:03:07;7.00;99.90
25937;DHT22;13733;51.178;4.450;2024-02-26T15:05:34;7.00;99.90
25937;DHT22;13733;51.178;4.450;2024-02-26T15:07:59;7.10;99.90
25937;DHT22;13733;51.178;4.450;2024-02-26T15:10:25;7.10;99.90
25937;DHT22;13733;51.178;4.450;2024-02-26T15:12:52;7.10;99.90
25937;DHT22;13733;51.178;4.450;2024-02-26T15:15:23;7.10;99.90
25937;DHT22;13733;51.178;4.450;2024-02-26T15:17:50;7.00;99.90
25937;DHT22;13733;51.178;4.450;2024-02-26T15:20:17;7.00;99.90
25937;DHT22;13733;51.178;4.450;2024-02-26T15:22:43;7.00;99.90
25937;DHT22;13733;51.178;4.450;2024-02-26T15:25:09;7.00;99.90
25937;DHT22;13733;51.178;4.450;2024-02-26T15:27:35;7.00;99.90
25937;DHT22;13733;51.178;4.450;2024-02-26T15:30:03;7.00;99.90
25937;DHT22;13733;51.178;4.450;2024-02-26T15:32:29;7.10;99.90
25937;DHT22;13733;51.178;4.450;2024-02-26T15:34:55;7.00;99.90
25937;DHT22;13733;51.178;4.450;2024-02-26T15:37:21;7.00;99.90
25937;DHT22;13733;51.178;4.450;2024-02-26T15:39:48;7.00;99.90
25937;DHT22;13733;51.178;4.450;2024-02-26T15:42:14;6.90;99.90
25937;DHT22;13733;51.178;4.450;2024-02-26T15:44:40;7.00;99.90
25937;DHT22;13733;51.178;4.450;2024-02-26T15:47:07;7.00;99.90
25937;DHT22;13733;51.178;4.450;2024-02-26T15:49:33;7.00;99.90
25937;DHT22;13733;51.178;4.450;2024-02-26T15:52:00;7.10;99.90